Worden, MT (59088)

1:34 PM MDT on May 30, 2015 (GMT -0600)
MesoWest | | Change Station
CLOSE
Current Station
Personal Weather Station
Location: Huntley, MT
Elevation: 3701 ft
Nearby Weather Stations

Elev 3701 ft 45.78 °N, 108.16 °W | Updated 29 minutes ago

Mostly Cloudy
Mostly Cloudy
68 °F
Feels Like 68 °F
N
10
Wind Variable Wind from East
Gusts 14.0 mph

Today
High -- | Low -- °F
--% Chance of Precip.
Yesterday
High -- | Low -- °F
Precip. -- in
5:26 AM 8:54 PM
Waxing Gibbous, 91% visible
Pressure 29.99 in
Visibility 10.0 miles
Clouds Few 6500 ft
Scattered Clouds 15000 ft
Mostly Cloudy 20000 ft
Dew Point 44 °F
Humidity 43%
Rainfall in
Snow Depth Not available.
UV 6 out of 12
Pollen 7.50 out of 12
Air Quality Not available.
Flu Activity Sporadic
METAR KBIL 301853Z VRB05KT 10SM FEW065 SCT150 BKN200 20/11 A3003 RMK AO2 SLP154 T02000111

More Conditions Fewer Conditions

Pressure 29.99 in
Visibility 10.0 miles
Clouds Few 6500 ft
Scattered Clouds 15000 ft
Mostly Cloudy 20000 ft
Dew Point 44 °F
Humidity 43%
Rainfall in
Snow Depth Not available.
UV 6 out of 12
Pollen 7.50 out of 12
Air Quality Not available.
Flu Activity Sporadic
METAR KBIL 301853Z VRB05KT 10SM FEW065 SCT150 BKN200 20/11 A3003 RMK AO2 SLP154 T02000111

More Conditions Fewer Conditions

10-Day Weather Forecast

Almanac

Astronomy

May. 30, 2015 Rise Set
Actual Time
Civil Twilight
Nautical Twilight
Astronomical Twilight
Moon
Length of Visible Light
Length of Day
Tomorrow will be .
, % of the Moon is Illuminated

Today's Extremes

State Highs State Lows

Community

WunderPhotos

Upload Photos

1,825,594 photos uploaded!

WunderBlogs® & News

Nearby

Air Quality

  Air Quality AQ Index Pollutant
Not available.

Snow Depth

Station Depth Elevation

Earthquake Activity

City Distance Mag. Time & Date
Minimum magnitude displayed is 2.5.

Coastal Water Temperatures

Place Temperature

Stations

Nearby Weather Stations

Station Location Temp. Windchill Dew Point Humidity Wind Precip. Elev Updated Type